sensor_id;sensor_type;location;lat;lon;timestamp;P1;durP1;ratioP1;P2;durP2;ratioP2
4182;SDS011;2105;52.300;9.182;2024-01-30T00:01:52;18.00;;;16.20;;
4182;SDS011;2105;52.300;9.182;2024-01-30T00:04:19;17.43;;;15.73;;
4182;SDS011;2105;52.300;9.182;2024-01-30T00:06:45;18.20;;;16.60;;
4182;SDS011;2105;52.300;9.182;2024-01-30T00:09:12;20.30;;;16.07;;
4182;SDS011;2105;52.300;9.182;2024-01-30T00:11:40;17.33;;;15.53;;
4182;SDS011;2105;52.300;9.182;2024-01-30T00:14:07;16.80;;;15.40;;
4182;SDS011;2105;52.300;9.182;2024-01-30T00:16:33;17.33;;;15.83;;
4182;SDS011;2105;52.300;9.182;2024-01-30T00:19:00;17.30;;;15.53;;
4182;SDS011;2105;52.300;9.182;2024-01-30T00:21:27;18.50;;;16.67;;
4182;SDS011;2105;52.300;9.182;2024-01-30T00:23:54;19.20;;;17.20;;
4182;SDS011;2105;52.300;9.182;2024-01-30T00:26:20;18.50;;;16.60;;
4182;SDS011;2105;52.300;9.182;2024-01-30T00:28:48;17.37;;;15.83;;
4182;SDS011;2105;52.300;9.182;2024-01-30T00:31:15;18.83;;;17.03;;
4182;SDS011;2105;52.300;9.182;2024-01-30T00:33:42;18.60;;;16.67;;
4182;SDS011;2105;52.300;9.182;2024-01-30T00:36:09;17.80;;;16.20;;
4182;SDS011;2105;52.300;9.182;2024-01-30T00:38:37;18.93;;;17.13;;
4182;SDS011;2105;52.300;9.182;2024-01-30T00:41:05;18.53;;;16.83;;
4182;SDS011;2105;52.300;9.182;2024-01-30T00:43:34;21.63;;;16.10;;
4182;SDS011;2105;52.300;9.182;2024-01-30T00:46:02;18.63;;;16.60;;
4182;SDS011;2105;52.300;9.182;2024-01-30T00:48:29;19.17;;;17.27;;
4182;SDS011;2105;52.300;9.182;2024-01-30T00:50:55;19.67;;;17.77;;
4182;SDS011;2105;52.300;9.182;2024-01-30T00:53:22;18.90;;;17.20;;
4182;SDS011;2105;52.300;9.182;2024-01-30T00:55:49;19.13;;;17.10;;
4182;SDS011;2105;52.300;9.182;2024-01-30T00:58:15;18.10;;;16.30;;
4182;SDS011;2105;52.300;9.182;2024-01-30T01:00:44;18.57;;;16.77;;
4182;SDS011;2105;52.300;9.182;2024-01-30T01:03:12;18.23;;;16.40;;
4182;SDS011;2105;52.300;9.182;2024-01-30T01:05:39;18.60;;;16.87;;
4182;SDS011;2105;52.300;9.182;2024-01-30T01:08:06;22.47;;;16.60;;
4182;SDS011;2105;52.300;9.182;2024-01-30T01:10:34;17.87;;;16.30;;
4182;SDS011;2105;52.300;9.182;2024-01-30T01:13:00;18.27;;;16.60;;
4182;SDS011;2105;52.300;9.182;2024-01-30T01:15:27;18.00;;;16.30;;
4182;SDS011;2105;52.300;9.182;2024-01-30T01:17:53;18.33;;;16.50;;
4182;SDS011;2105;52.300;9.182;2024-01-30T01:20:21;17.23;;;15.63;;
4182;SDS011;2105;52.300;9.182;2024-01-30T01:22:48;18.23;;;16.53;;
4182;SDS011;2105;52.300;9.182;2024-01-30T01:25:15;18.60;;;16.87;;
4182;SDS011;2105;52.300;9.182;2024-01-30T01:27:41;20.23;;;17.03;;
4182;SDS011;2105;52.300;9.182;2024-01-30T01:30:10;18.07;;;16.37;;
4182;SDS011;2105;52.300;9.182;2024-01-30T01:32:43;17.70;;;15.87;;
4182;SDS011;2105;52.300;9.182;2024-01-30T01:35:15;18.27;;;16.47;;
4182;SDS011;2105;52.300;9.182;2024-01-30T01:37:43;18.70;;;16.73;;
4182;SDS011;2105;52.300;9.182;2024-01-30T01:40:09;17.83;;;16.00;;
4182;SDS011;2105;52.300;9.182;2024-01-30T01:42:36;18.10;;;16.27;;
4182;SDS011;2105;52.300;9.182;2024-01-30T01:45:03;17.87;;;16.17;;
4182;SDS011;2105;52.300;9.182;2024-01-30T01:47:30;18.20;;;16.33;;
4182;SDS011;2105;52.300;9.182;2024-01-30T01:49:57;17.57;;;15.87;;
4182;SDS011;2105;52.300;9.182;2024-01-30T01:52:24;18.50;;;16.80;;
4182;SDS011;2105;52.300;9.182;2024-01-30T01:54:52;18.03;;;16.37;;
4182;SDS011;2105;52.300;9.182;2024-01-30T01:57:18;17.53;;;16.00;;
4182;SDS011;2105;52.300;9.182;2024-01-30T01:59:45;18.37;;;16.47;;
4182;SDS011;2105;52.300;9.182;2024-01-30T02:02:12;18.67;;;17.00;;
4182;SDS011;2105;52.300;9.182;2024-01-30T02:04:40;17.60;;;16.00;;
4182;SDS011;2105;52.300;9.182;2024-01-30T02:07:07;18.20;;;16.40;;
4182;SDS011;2105;52.300;9.182;2024-01-30T02:09:34;18.13;;;16.53;;
4182;SDS011;2105;52.300;9.182;2024-01-30T02:12:02;18.17;;;16.27;;
4182;SDS011;2105;52.300;9.182;2024-01-30T02:14:29;18.10;;;16.30;;
4182;SDS011;2105;52.300;9.182;2024-01-30T02:16:56;18.63;;;16.67;;
4182;SDS011;2105;52.300;9.182;2024-01-30T02:19:22;19.07;;;17.10;;
4182;SDS011;2105;52.300;9.182;2024-01-30T02:21:50;17.23;;;15.73;;
4182;SDS011;2105;52.300;9.182;2024-01-30T02:24:18;18.53;;;16.83;;
4182;SDS011;2105;52.300;9.182;2024-01-30T02:26:44;17.63;;;16.13;;
4182;SDS011;2105;52.300;9.182;2024-01-30T02:29:11;18.50;;;16.90;;
4182;SDS011;2105;52.300;9.182;2024-01-30T02:31:37;17.93;;;16.20;;
4182;SDS011;2105;52.300;9.182;2024-01-30T02:34:07;18.63;;;16.73;;
4182;SDS011;2105;52.300;9.182;2024-01-30T02:36:34;18.10;;;16.40;;
4182;SDS011;2105;52.300;9.182;2024-01-30T02:39:02;17.90;;;16.40;;
4182;SDS011;2105;52.300;9.182;2024-01-30T02:41:28;17.87;;;16.20;;
4182;SDS011;2105;52.300;9.182;2024-01-30T02:43:55;18.07;;;16.37;;
4182;SDS011;2105;52.300;9.182;2024-01-30T02:46:22;18.23;;;16.67;;
4182;SDS011;2105;52.300;9.182;2024-01-30T02:48:48;18.67;;;17.07;;
4182;SDS011;2105;52.300;9.182;2024-01-30T02:51:15;18.67;;;16.77;;
4182;SDS011;2105;52.300;9.182;2024-01-30T02:53:42;18.00;;;16.30;;
4182;SDS011;2105;52.300;9.182;2024-01-30T02:56:10;17.83;;;16.30;;
4182;SDS011;2105;52.300;9.182;2024-01-30T02:58:38;18.07;;;16.30;;
4182;SDS011;2105;52.300;9.182;2024-01-30T03:01:05;19.80;;;16.87;;
4182;SDS011;2105;52.300;9.182;2024-01-30T03:03:32;18.43;;;16.67;;
4182;SDS011;2105;52.300;9.182;2024-01-30T03:06:00;20.83;;;16.57;;
4182;SDS011;2105;52.300;9.182;2024-01-30T03:08:26;19.13;;;17.13;;
4182;SDS011;2105;52.300;9.182;2024-01-30T03:14:16;19.87;;;17.80;;
4182;SDS011;2105;52.300;9.182;2024-01-30T03:16:43;18.90;;;16.93;;
4182;SDS011;2105;52.300;9.182;2024-01-30T03:19:09;24.53;;;16.67;;
4182;SDS011;2105;52.300;9.182;2024-01-30T03:21:36;19.23;;;17.30;;
4182;SDS011;2105;52.300;9.182;2024-01-30T03:24:03;19.17;;;17.10;;
4182;SDS011;2105;52.300;9.182;2024-01-30T03:26:30;19.37;;;17.47;;
4182;SDS011;2105;52.300;9.182;2024-01-30T03:28:56;18.07;;;16.37;;
4182;SDS011;2105;52.300;9.182;2024-01-30T03:31:24;19.27;;;17.37;;
4182;SDS011;2105;52.300;9.182;2024-01-30T03:33:51;18.70;;;17.03;;
4182;SDS011;2105;52.300;9.182;2024-01-30T03:36:17;19.17;;;17.30;;
4182;SDS011;2105;52.300;9.182;2024-01-30T03:38:44;18.90;;;17.10;;
4182;SDS011;2105;52.300;9.182;2024-01-30T03:41:11;21.20;;;19.00;;
4182;SDS011;2105;52.300;9.182;2024-01-30T03:43:37;20.63;;;18.60;;
4182;SDS011;2105;52.300;9.182;2024-01-30T03:46:04;19.60;;;17.60;;
4182;SDS011;2105;52.300;9.182;2024-01-30T03:48:32;19.37;;;17.67;;
4182;SDS011;2105;52.300;9.182;2024-01-30T03:50:59;19.77;;;17.80;;
4182;SDS011;2105;52.300;9.182;2024-01-30T03:53:26;20.20;;;18.27;;
4182;SDS011;2105;52.300;9.182;2024-01-30T03:55:52;19.00;;;17.23;;
4182;SDS011;2105;52.300;9.182;2024-01-30T03:58:19;18.83;;;17.03;;
4182;SDS011;2105;52.300;9.182;2024-01-30T04:00:45;19.13;;;17.43;;
4182;SDS011;2105;52.300;9.182;2024-01-30T04:03:12;20.47;;;18.47;;
4182;SDS011;2105;52.300;9.182;2024-01-30T04:05:41;20.70;;;18.10;;
4182;SDS011;2105;52.300;9.182;2024-01-30T04:08:08;22.60;;;20.03;;
4182;SDS011;2105;52.300;9.182;2024-01-30T04:10:35;23.40;;;19.23;;
4182;SDS011;2105;52.300;9.182;2024-01-30T04:13:02;21.43;;;19.23;;
4182;SDS011;2105;52.300;9.182;2024-01-30T04:15:28;22.33;;;19.50;;
4182;SDS011;2105;52.300;9.182;2024-01-30T04:17:57;22.27;;;18.93;;
4182;SDS011;2105;52.300;9.182;2024-01-30T04:20:23;26.90;;;17.87;;
4182;SDS011;2105;52.300;9.182;2024-01-30T04:22:52;19.87;;;17.87;;
4182;SDS011;2105;52.300;9.182;2024-01-30T04:25:18;21.97;;;17.47;;
4182;SDS011;2105;52.300;9.182;2024-01-30T04:27:45;19.70;;;17.70;;
4182;SDS011;2105;52.300;9.182;2024-01-30T04:30:12;20.17;;;18.00;;
4182;SDS011;2105;52.300;9.182;2024-01-30T04:32:38;20.57;;;18.40;;
4182;SDS011;2105;52.300;9.182;2024-01-30T04:35:06;19.33;;;17.43;;
4182;SDS011;2105;52.300;9.182;2024-01-30T04:37:33;21.13;;;18.83;;
4182;SDS011;2105;52.300;9.182;2024-01-30T04:40:01;20.07;;;17.67;;
4182;SDS011;2105;52.300;9.182;2024-01-30T04:42:28;19.67;;;17.77;;
4182;SDS011;2105;52.300;9.182;2024-01-30T04:44:54;19.80;;;17.90;;
4182;SDS011;2105;52.300;9.182;2024-01-30T04:47:21;21.93;;;19.57;;
4182;SDS011;2105;52.300;9.182;2024-01-30T04:49:47;20.87;;;18.90;;
4182;SDS011;2105;52.300;9.182;2024-01-30T04:52:15;20.77;;;18.60;;
4182;SDS011;2105;52.300;9.182;2024-01-30T04:54:42;22.77;;;20.33;;
4182;SDS011;2105;52.300;9.182;2024-01-30T04:57:10;20.77;;;18.77;;
4182;SDS011;2105;52.300;9.182;2024-01-30T04:59:37;20.93;;;18.67;;
4182;SDS011;2105;52.300;9.182;2024-01-30T05:02:04;20.20;;;18.10;;
4182;SDS011;2105;52.300;9.182;2024-01-30T05:04:30;21.70;;;19.40;;
4182;SDS011;2105;52.300;9.182;2024-01-30T05:06:57;22.10;;;18.80;;
4182;SDS011;2105;52.300;9.182;2024-01-30T05:09:24;21.83;;;18.20;;
4182;SDS011;2105;52.300;9.182;2024-01-30T05:11:51;20.03;;;18.13;;
4182;SDS011;2105;52.300;9.182;2024-01-30T05:14:19;21.00;;;18.80;;
4182;SDS011;2105;52.300;9.182;2024-01-30T05:16:45;21.90;;;19.70;;
4182;SDS011;2105;52.300;9.182;2024-01-30T05:19:12;20.00;;;18.10;;
4182;SDS011;2105;52.300;9.182;2024-01-30T05:21:40;20.40;;;18.20;;
4182;SDS011;2105;52.300;9.182;2024-01-30T05:24:07;21.57;;;18.03;;
4182;SDS011;2105;52.300;9.182;2024-01-30T05:26:35;20.10;;;18.30;;
4182;SDS011;2105;52.300;9.182;2024-01-30T05:29:01;24.60;;;17.80;;
4182;SDS011;2105;52.300;9.182;2024-01-30T05:31:29;19.33;;;17.40;;
4182;SDS011;2105;52.300;9.182;2024-01-30T05:33:56;18.50;;;16.50;;
4182;SDS011;2105;52.300;9.182;2024-01-30T05:36:23;18.80;;;17.10;;
4182;SDS011;2105;52.300;9.182;2024-01-30T05:38:50;19.60;;;17.67;;
4182;SDS011;2105;52.300;9.182;2024-01-30T05:41:16;22.47;;;17.03;;
4182;SDS011;2105;52.300;9.182;2024-01-30T05:43:43;18.10;;;16.50;;
4182;SDS011;2105;52.300;9.182;2024-01-30T05:46:10;19.83;;;17.77;;
4182;SDS011;2105;52.300;9.182;2024-01-30T05:48:37;20.20;;;17.50;;
4182;SDS011;2105;52.300;9.182;2024-01-30T05:51:04;19.13;;;17.33;;
4182;SDS011;2105;52.300;9.182;2024-01-30T05:53:33;19.63;;;17.60;;
4182;SDS011;2105;52.300;9.182;2024-01-30T05:56:00;20.87;;;18.60;;
4182;SDS011;2105;52.300;9.182;2024-01-30T05:58:27;20.13;;;18.10;;
4182;SDS011;2105;52.300;9.182;2024-01-30T06:00:54;21.10;;;19.03;;
4182;SDS011;2105;52.300;9.182;2024-01-30T06:03:20;20.90;;;18.97;;
4182;SDS011;2105;52.300;9.182;2024-01-30T06:05:48;21.00;;;18.90;;
4182;SDS011;2105;52.300;9.182;2024-01-30T06:08:15;19.83;;;18.03;;
4182;SDS011;2105;52.300;9.182;2024-01-30T06:10:42;19.17;;;17.47;;
4182;SDS011;2105;52.300;9.182;2024-01-30T06:13:08;18.33;;;16.73;;
4182;SDS011;2105;52.300;9.182;2024-01-30T06:15:35;20.13;;;18.20;;
4182;SDS011;2105;52.300;9.182;2024-01-30T06:18:02;20.53;;;18.47;;
4182;SDS011;2105;52.300;9.182;2024-01-30T06:20:29;19.37;;;17.47;;
4182;SDS011;2105;52.300;9.182;2024-01-30T06:22:57;19.13;;;17.30;;
4182;SDS011;2105;52.300;9.182;2024-01-30T06:25:23;19.43;;;17.73;;
4182;SDS011;2105;52.300;9.182;2024-01-30T06:27:50;19.20;;;17.50;;
4182;SDS011;2105;52.300;9.182;2024-01-30T06:30:19;19.50;;;17.67;;
4182;SDS011;2105;52.300;9.182;2024-01-30T06:32:55;21.07;;;18.97;;
4182;SDS011;2105;52.300;9.182;2024-01-30T06:35:21;20.50;;;18.60;;
4182;SDS011;2105;52.300;9.182;2024-01-30T06:37:48;21.97;;;18.77;;
4182;SDS011;2105;52.300;9.182;2024-01-30T06:40:16;21.30;;;19.00;;
4182;SDS011;2105;52.300;9.182;2024-01-30T06:42:42;24.70;;;18.67;;
4182;SDS011;2105;52.300;9.182;2024-01-30T06:45:09;24.80;;;18.30;;
4182;SDS011;2105;52.300;9.182;2024-01-30T06:47:36;21.20;;;18.40;;
4182;SDS011;2105;52.300;9.182;2024-01-30T06:50:03;23.27;;;18.60;;
4182;SDS011;2105;52.300;9.182;2024-01-30T06:52:30;20.27;;;18.13;;
4182;SDS011;2105;52.300;9.182;2024-01-30T06:54:56;23.43;;;17.77;;
4182;SDS011;2105;52.300;9.182;2024-01-30T06:57:24;22.17;;;17.23;;
4182;SDS011;2105;52.300;9.182;2024-01-30T06:59:53;21.13;;;17.23;;
4182;SDS011;2105;52.300;9.182;2024-01-30T07:02:19;18.97;;;17.03;;
4182;SDS011;2105;52.300;9.182;2024-01-30T07:04:46;21.23;;;17.13;;
4182;SDS011;2105;52.300;9.182;2024-01-30T07:07:14;17.13;;;15.63;;
4182;SDS011;2105;52.300;9.182;2024-01-30T07:09:41;18.03;;;16.33;;
4182;SDS011;2105;52.300;9.182;2024-01-30T07:12:07;18.30;;;16.80;;
4182;SDS011;2105;52.300;9.182;2024-01-30T07:14:35;19.10;;;17.03;;
4182;SDS011;2105;52.300;9.182;2024-01-30T07:17:02;19.83;;;17.73;;
4182;SDS011;2105;52.300;9.182;2024-01-30T07:19:29;19.13;;;17.33;;
4182;SDS011;2105;52.300;9.182;2024-01-30T07:21:56;18.67;;;16.97;;
4182;SDS011;2105;52.300;9.182;2024-01-30T07:24:23;19.20;;;17.20;;
4182;SDS011;2105;52.300;9.182;2024-01-30T07:26:49;19.23;;;17.30;;
4182;SDS011;2105;52.300;9.182;2024-01-30T07:29:16;19.97;;;17.60;;
4182;SDS011;2105;52.300;9.182;2024-01-30T07:31:44;18.60;;;16.97;;
4182;SDS011;2105;52.300;9.182;2024-01-30T07:34:11;18.93;;;17.23;;
4182;SDS011;2105;52.300;9.182;2024-01-30T07:36:38;18.70;;;17.00;;
4182;SDS011;2105;52.300;9.182;2024-01-30T07:39:04;18.30;;;16.40;;
4182;SDS011;2105;52.300;9.182;2024-01-30T07:41:31;18.00;;;16.43;;
4182;SDS011;2105;52.300;9.182;2024-01-30T07:43:58;17.70;;;16.10;;
4182;SDS011;2105;52.300;9.182;2024-01-30T07:46:25;19.10;;;17.10;;
4182;SDS011;2105;52.300;9.182;2024-01-30T07:48:53;20.27;;;17.47;;
4182;SDS011;2105;52.300;9.182;2024-01-30T07:51:20;19.43;;;17.30;;
4182;SDS011;2105;52.300;9.182;2024-01-30T07:53:47;19.20;;;17.40;;
4182;SDS011;2105;52.300;9.182;2024-01-30T07:56:14;18.67;;;17.00;;
4182;SDS011;2105;52.300;9.182;2024-01-30T07:58:41;19.17;;;17.33;;
4182;SDS011;2105;52.300;9.182;2024-01-30T08:01:07;19.23;;;17.43;;
4182;SDS011;2105;52.300;9.182;2024-01-30T08:03:34;19.00;;;17.20;;
4182;SDS011;2105;52.300;9.182;2024-01-30T08:06:03;19.20;;;17.50;;
4182;SDS011;2105;52.300;9.182;2024-01-30T08:08:30;18.90;;;17.10;;
4182;SDS011;2105;52.300;9.182;2024-01-30T08:10:56;19.13;;;17.53;;
4182;SDS011;2105;52.300;9.182;2024-01-30T08:13:23;19.83;;;18.03;;
4182;SDS011;2105;52.300;9.182;2024-01-30T08:15:50;20.50;;;18.60;;
4182;SDS011;2105;52.300;9.182;2024-01-30T08:18:16;19.63;;;17.67;;
4182;SDS011;2105;52.300;9.182;2024-01-30T08:20:43;18.67;;;17.17;;
4182;SDS011;2105;52.300;9.182;2024-01-30T08:23:11;19.40;;;17.60;;
4182;SDS011;2105;52.300;9.182;2024-01-30T08:25:38;19.60;;;17.67;;
4182;SDS011;2105;52.300;9.182;2024-01-30T08:28:05;18.73;;;17.13;;
4182;SDS011;2105;52.300;9.182;2024-01-30T08:30:32;19.40;;;17.60;;
4182;SDS011;2105;52.300;9.182;2024-01-30T08:32:59;18.33;;;16.43;;
4182;SDS011;2105;52.300;9.182;2024-01-30T08:35:25;19.40;;;17.30;;
4182;SDS011;2105;52.300;9.182;2024-01-30T08:37:52;18.87;;;17.10;;
4182;SDS011;2105;52.300;9.182;2024-01-30T08:40:21;19.13;;;17.33;;
4182;SDS011;2105;52.300;9.182;2024-01-30T08:42:47;19.27;;;17.50;;
4182;SDS011;2105;52.300;9.182;2024-01-30T08:45:14;18.70;;;17.20;;
4182;SDS011;2105;52.300;9.182;2024-01-30T08:47:41;19.27;;;17.47;;
4182;SDS011;2105;52.300;9.182;2024-01-30T08:50:08;19.67;;;17.87;;
4182;SDS011;2105;52.300;9.182;2024-01-30T08:52:35;18.87;;;17.03;;
4182;SDS011;2105;52.300;9.182;2024-01-30T08:55:02;19.57;;;17.67;;
4182;SDS011;2105;52.300;9.182;2024-01-30T08:57:31;18.80;;;17.03;;
4182;SDS011;2105;52.300;9.182;2024-01-30T08:59:57;18.70;;;17.00;;
4182;SDS011;2105;52.300;9.182;2024-01-30T09:02:24;18.80;;;17.00;;
4182;SDS011;2105;52.300;9.182;2024-01-30T09:04:50;19.23;;;17.53;;
4182;SDS011;2105;52.300;9.182;2024-01-30T09:07:17;19.13;;;17.00;;
4182;SDS011;2105;52.300;9.182;2024-01-30T09:09:44;18.80;;;17.10;;
4182;SDS011;2105;52.300;9.182;2024-01-30T09:12:10;21.63;;;18.40;;
4182;SDS011;2105;52.300;9.182;2024-01-30T09:14:38;18.70;;;17.10;;
4182;SDS011;2105;52.300;9.182;2024-01-30T09:17:06;20.37;;;18.27;;
4182;SDS011;2105;52.300;9.182;2024-01-30T09:19:32;19.90;;;17.87;;
4182;SDS011;2105;52.300;9.182;2024-01-30T09:21:59;18.90;;;17.00;;
4182;SDS011;2105;52.300;9.182;2024-01-30T09:24:26;19.90;;;17.73;;
4182;SDS011;2105;52.300;9.182;2024-01-30T09:26:53;19.37;;;17.47;;
4182;SDS011;2105;52.300;9.182;2024-01-30T09:29:20;20.13;;;17.30;;
4182;SDS011;2105;52.300;9.182;2024-01-30T09:31:48;19.13;;;17.43;;
4182;SDS011;2105;52.300;9.182;2024-01-30T09:34:15;20.60;;;16.70;;
4182;SDS011;2105;52.300;9.182;2024-01-30T09:36:42;18.50;;;17.00;;
4182;SDS011;2105;52.300;9.182;2024-01-30T09:39:08;19.40;;;17.50;;
4182;SDS011;2105;52.300;9.182;2024-01-30T09:41:36;19.00;;;17.50;;
4182;SDS011;2105;52.300;9.182;2024-01-30T09:44:10;20.20;;;18.00;;
4182;SDS011;2105;52.300;9.182;2024-01-30T09:46:38;19.03;;;17.40;;
4182;SDS011;2105;52.300;9.182;2024-01-30T09:49:07;18.97;;;17.30;;
4182;SDS011;2105;52.300;9.182;2024-01-30T09:51:35;19.63;;;17.60;;
4182;SDS011;2105;52.300;9.182;2024-01-30T09:54:02;18.90;;;17.30;;
4182;SDS011;2105;52.300;9.182;2024-01-30T09:56:29;18.83;;;17.00;;
4182;SDS011;2105;52.300;9.182;2024-01-30T09:58:56;18.77;;;17.17;;
4182;SDS011;2105;52.300;9.182;2024-01-30T10:01:22;18.70;;;16.90;;
4182;SDS011;2105;52.300;9.182;2024-01-30T10:03:50;19.87;;;17.87;;
4182;SDS011;2105;52.300;9.182;2024-01-30T10:06:19;19.30;;;17.40;;
4182;SDS011;2105;52.300;9.182;2024-01-30T10:08:47;19.10;;;17.30;;
4182;SDS011;2105;52.300;9.182;2024-01-30T10:11:14;23.10;;;17.73;;
4182;SDS011;2105;52.300;9.182;2024-01-30T10:13:40;18.97;;;17.20;;
4182;SDS011;2105;52.300;9.182;2024-01-30T10:16:07;18.87;;;17.20;;
4182;SDS011;2105;52.300;9.182;2024-01-30T10:18:34;22.00;;;16.80;;
4182;SDS011;2105;52.300;9.182;2024-01-30T10:21:00;25.00;;;18.40;;
4182;SDS011;2105;52.300;9.182;2024-01-30T10:23:29;21.40;;;18.00;;
4182;SDS011;2105;52.300;9.182;2024-01-30T10:25:56;18.10;;;16.53;;
4182;SDS011;2105;52.300;9.182;2024-01-30T10:28:23;19.30;;;17.30;;
4182;SDS011;2105;52.300;9.182;2024-01-30T10:30:57;18.90;;;17.23;;
4182;SDS011;2105;52.300;9.182;2024-01-30T10:33:25;19.97;;;17.93;;
4182;SDS011;2105;52.300;9.182;2024-01-30T10:35:53;25.27;;;17.80;;
4182;SDS011;2105;52.300;9.182;2024-01-30T10:38:25;20.80;;;18.70;;
4182;SDS011;2105;52.300;9.182;2024-01-30T10:40:56;19.50;;;17.60;;
4182;SDS011;2105;52.300;9.182;2024-01-30T10:43:24;19.30;;;17.33;;
4182;SDS011;2105;52.300;9.182;2024-01-30T10:45:57;20.53;;;18.50;;
4182;SDS011;2105;52.300;9.182;2024-01-30T10:48:32;19.30;;;17.60;;
4182;SDS011;2105;52.300;9.182;2024-01-30T10:51:07;19.67;;;17.97;;
4182;SDS011;2105;52.300;9.182;2024-01-30T10:53:36;19.60;;;17.70;;
4182;SDS011;2105;52.300;9.182;2024-01-30T10:56:04;19.70;;;18.00;;
4182;SDS011;2105;52.300;9.182;2024-01-30T10:58:32;20.80;;;18.83;;
4182;SDS011;2105;52.300;9.182;2024-01-30T11:00:59;19.90;;;18.00;;
4182;SDS011;2105;52.300;9.182;2024-01-30T11:03:26;19.80;;;18.03;;
4182;SDS011;2105;52.300;9.182;2024-01-30T11:05:53;21.57;;;19.07;;
4182;SDS011;2105;52.300;9.182;2024-01-30T11:08:25;20.50;;;18.40;;
4182;SDS011;2105;52.300;9.182;2024-01-30T11:10:55;20.17;;;18.30;;
4182;SDS011;2105;52.300;9.182;2024-01-30T11:13:26;20.87;;;18.80;;
4182;SDS011;2105;52.300;9.182;2024-01-30T11:15:54;20.70;;;18.80;;
4182;SDS011;2105;52.300;9.182;2024-01-30T11:18:24;20.20;;;18.23;;
4182;SDS011;2105;52.300;9.182;2024-01-30T11:20:51;21.80;;;19.70;;
4182;SDS011;2105;52.300;9.182;2024-01-30T11:23:18;22.10;;;20.00;;
4182;SDS011;2105;52.300;9.182;2024-01-30T11:25:48;21.63;;;19.83;;
4182;SDS011;2105;52.300;9.182;2024-01-30T11:28:16;21.50;;;19.33;;
4182;SDS011;2105;52.300;9.182;2024-01-30T11:30:43;20.00;;;18.30;;
4182;SDS011;2105;52.300;9.182;2024-01-30T11:33:12;27.07;;;17.80;;
4182;SDS011;2105;52.300;9.182;2024-01-30T11:35:40;19.27;;;17.47;;
4182;SDS011;2105;52.300;9.182;2024-01-30T11:38:09;18.53;;;16.87;;
4182;SDS011;2105;52.300;9.182;2024-01-30T11:40:37;19.67;;;17.80;;
4182;SDS011;2105;52.300;9.182;2024-01-30T11:43:04;22.40;;;18.20;;
4182;SDS011;2105;52.300;9.182;2024-01-30T11:45:35;18.70;;;16.87;;
4182;SDS011;2105;52.300;9.182;2024-01-30T11:48:03;19.27;;;17.60;;
4182;SDS011;2105;52.300;9.182;2024-01-30T11:50:30;19.03;;;16.80;;
4182;SDS011;2105;52.300;9.182;2024-01-30T11:52:57;19.40;;;17.67;;
4182;SDS011;2105;52.300;9.182;2024-01-30T11:55:25;20.83;;;18.40;;
4182;SDS011;2105;52.300;9.182;2024-01-30T11:57:54;20.30;;;18.40;;
4182;SDS011;2105;52.300;9.182;2024-01-30T12:00:21;19.47;;;17.50;;
4182;SDS011;2105;52.300;9.182;2024-01-30T12:02:53;21.20;;;19.00;;
4182;SDS011;2105;52.300;9.182;2024-01-30T12:05:22;21.43;;;18.60;;
4182;SDS011;2105;52.300;9.182;2024-01-30T12:07:48;19.60;;;17.77;;
4182;SDS011;2105;52.300;9.182;2024-01-30T12:10:15;18.93;;;17.07;;
4182;SDS011;2105;52.300;9.182;2024-01-30T12:12:43;20.27;;;18.17;;
4182;SDS011;2105;52.300;9.182;2024-01-30T12:15:11;19.47;;;17.60;;
4182;SDS011;2105;52.300;9.182;2024-01-30T12:17:39;20.93;;;18.43;;
4182;SDS011;2105;52.300;9.182;2024-01-30T12:20:08;21.03;;;19.13;;
4182;SDS011;2105;52.300;9.182;2024-01-30T12:22:36;20.77;;;18.63;;
4182;SDS011;2105;52.300;9.182;2024-01-30T12:25:04;20.70;;;18.87;;
4182;SDS011;2105;52.300;9.182;2024-01-30T12:27:31;21.47;;;19.50;;
4182;SDS011;2105;52.300;9.182;2024-01-30T12:29:58;20.30;;;18.47;;
4182;SDS011;2105;52.300;9.182;2024-01-30T12:32:24;20.33;;;18.57;;
4182;SDS011;2105;52.300;9.182;2024-01-30T12:34:54;20.37;;;18.60;;
4182;SDS011;2105;52.300;9.182;2024-01-30T12:37:22;20.77;;;18.67;;
4182;SDS011;2105;52.300;9.182;2024-01-30T12:39:49;21.43;;;19.50;;
4182;SDS011;2105;52.300;9.182;2024-01-30T12:42:17;22.43;;;19.00;;
4182;SDS011;2105;52.300;9.182;2024-01-30T12:44:45;21.77;;;19.50;;
4182;SDS011;2105;52.300;9.182;2024-01-30T12:47:11;21.73;;;19.53;;
4182;SDS011;2105;52.300;9.182;2024-01-30T12:49:38;21.60;;;19.30;;
4182;SDS011;2105;52.300;9.182;2024-01-30T12:52:05;20.83;;;18.90;;
4182;SDS011;2105;52.300;9.182;2024-01-30T12:54:33;20.70;;;18.63;;
4182;SDS011;2105;52.300;9.182;2024-01-30T12:56:59;21.87;;;19.37;;
4182;SDS011;2105;52.300;9.182;2024-01-30T12:59:26;23.33;;;19.17;;
4182;SDS011;2105;52.300;9.182;2024-01-30T13:01:53;21.47;;;19.17;;
4182;SDS011;2105;52.300;9.182;2024-01-30T13:04:21;20.03;;;18.00;;
4182;SDS011;2105;52.300;9.182;2024-01-30T13:06:48;20.00;;;18.10;;
4182;SDS011;2105;52.300;9.182;2024-01-30T13:09:15;21.00;;;19.00;;
4182;SDS011;2105;52.300;9.182;2024-01-30T13:11:44;21.13;;;18.67;;
4182;SDS011;2105;52.300;9.182;2024-01-30T13:14:10;20.07;;;18.13;;
4182;SDS011;2105;52.300;9.182;2024-01-30T13:16:37;19.93;;;18.03;;
4182;SDS011;2105;52.300;9.182;2024-01-30T13:19:03;21.60;;;18.77;;
4182;SDS011;2105;52.300;9.182;2024-01-30T13:21:31;21.67;;;18.20;;
4182;SDS011;2105;52.300;9.182;2024-01-30T13:23:57;19.30;;;17.60;;
4182;SDS011;2105;52.300;9.182;2024-01-30T13:26:24;20.60;;;18.40;;
4182;SDS011;2105;52.300;9.182;2024-01-30T13:28:52;19.80;;;17.70;;
4182;SDS011;2105;52.300;9.182;2024-01-30T13:31:19;21.07;;;18.30;;
4182;SDS011;2105;52.300;9.182;2024-01-30T13:33:46;20.57;;;18.47;;
4182;SDS011;2105;52.300;9.182;2024-01-30T13:36:13;23.93;;;18.23;;
4182;SDS011;2105;52.300;9.182;2024-01-30T13:38:40;18.40;;;16.40;;
4182;SDS011;2105;52.300;9.182;2024-01-30T13:41:07;21.13;;;18.00;;
4182;SDS011;2105;52.300;9.182;2024-01-30T13:43:34;21.63;;;18.00;;
4182;SDS011;2105;52.300;9.182;2024-01-30T13:46:02;28.50;;;19.90;;
4182;SDS011;2105;52.300;9.182;2024-01-30T13:48:29;21.80;;;18.17;;
4182;SDS011;2105;52.300;9.182;2024-01-30T13:50:56;23.53;;;17.67;;
4182;SDS011;2105;52.300;9.182;2024-01-30T13:53:23;21.50;;;18.30;;
4182;SDS011;2105;52.300;9.182;2024-01-30T13:55:50;20.13;;;18.00;;
4182;SDS011;2105;52.300;9.182;2024-01-30T13:58:17;19.50;;;17.50;;
4182;SDS011;2105;52.300;9.182;2024-01-30T14:00:43;21.80;;;17.40;;
4182;SDS011;2105;52.300;9.182;2024-01-30T14:08:54;19.47;;;17.40;;
4182;SDS011;2105;52.300;9.182;2024-01-30T14:11:34;25.90;;;18.10;;
4182;SDS011;2105;52.300;9.182;2024-01-30T14:14:04;21.33;;;18.90;;
4182;SDS011;2105;52.300;9.182;2024-01-30T14:16:35;23.30;;;18.70;;
4182;SDS011;2105;52.300;9.182;2024-01-30T14:19:02;24.47;;;18.47;;
4182;SDS011;2105;52.300;9.182;2024-01-30T14:21:30;24.10;;;17.70;;
4182;SDS011;2105;52.300;9.182;2024-01-30T14:23:56;20.13;;;17.70;;
4182;SDS011;2105;52.300;9.182;2024-01-30T14:26:30;20.40;;;18.37;;
4182;SDS011;2105;52.300;9.182;2024-01-30T14:28:57;22.70;;;18.30;;
4182;SDS011;2105;52.300;9.182;2024-01-30T14:31:24;25.90;;;19.00;;
4182;SDS011;2105;52.300;9.182;2024-01-30T14:33:51;23.70;;;18.50;;
4182;SDS011;2105;52.300;9.182;2024-01-30T14:36:17;24.93;;;18.27;;
4182;SDS011;2105;52.300;9.182;2024-01-30T14:38:47;21.80;;;19.13;;
4182;SDS011;2105;52.300;9.182;2024-01-30T14:41:13;21.60;;;19.30;;
4182;SDS011;2105;52.300;9.182;2024-01-30T14:43:40;24.17;;;20.00;;
4182;SDS011;2105;52.300;9.182;2024-01-30T14:46:07;31.30;;;20.57;;
4182;SDS011;2105;52.300;9.182;2024-01-30T14:48:34;26.27;;;20.47;;
4182;SDS011;2105;52.300;9.182;2024-01-30T14:51:01;25.10;;;21.47;;
4182;SDS011;2105;52.300;9.182;2024-01-30T14:53:28;27.93;;;20.93;;
4182;SDS011;2105;52.300;9.182;2024-01-30T14:55:56;24.33;;;19.50;;
4182;SDS011;2105;52.300;9.182;2024-01-30T14:58:22;21.70;;;19.40;;